Time;durP1;ratioP1;P1;durP2;ratioP2;P2;SDS_P1;SDS_P2;PMS_P1;PMS_P2;Temp;Humidity;BMP_temperature;BMP_pressure;BME280_temperature;BME280_humidity;BME280_pressure;Samples;Min_cycle;Max_cycle;Signal;HPM_P1;HPM_P2
2021/11/07 00:01:38;;;;;;;5.35;4.07;;;10.40;99.90;;;;;;5015984;28;20260;-66
2021/11/07 00:06:57;;;;;;;1.25;1.15;;;10.30;99.90;;;;;;5017251;28;20193;-68
2021/11/07 00:09:40;;;;;;;1.25;1.15;;;10.30;99.90;;;;;;5016642;28;20170;-66
2021/11/07 00:12:15;;;;;;;1.27;1.17;;;10.20;99.90;;;;;;5016719;28;20845;-66
2021/11/07 00:14:46;;;;;;;1.75;1.65;;;10.20;99.90;;;;;;5016760;28;20260;-64
2021/11/07 00:17:12;;;;;;;0.75;0.75;;;10.30;99.90;;;;;;5017042;28;20174;-65
2021/11/07 00:19:47;;;;;;;2.80;2.50;;;10.30;99.90;;;;;;5016341;28;20179;-66
2021/11/07 00:24:43;;;;;;;0.87;0.83;;;10.20;99.90;;;;;;5016650;28;20268;-65
2021/11/07 00:27:28;;;;;;;2.00;1.83;;;10.10;99.90;;;;;;5016882;28;20209;-65
2021/11/07 00:35:37;;;;;;;5.57;4.60;;;10.00;99.90;;;;;;5015448;28;20174;-65
2021/11/07 00:37:56;;;;;;;2.17;2.08;;;10.00;99.90;;;;;;5015821;28;20256;-65
2021/11/07 00:43:03;;;;;;;1.07;0.70;;;10.00;99.90;;;;;;5016182;28;20214;-65
2021/11/07 00:48:15;;;;;;;1.85;1.75;;;10.00;99.90;;;;;;5016127;28;20174;-64
2021/11/07 00:50:56;;;;;;;1.90;1.83;;;10.00;99.90;;;;;;5016325;28;20272;-65
2021/11/07 00:58:44;;;;;;;4.03;1.30;;;9.90;99.90;;;;;;5015949;28;20181;-64
2021/11/07 01:01:13;;;;;;;0.80;0.80;;;9.90;99.90;;;;;;5016508;28;20201;-65
2021/11/07 01:03:39;;;;;;;1.88;1.77;;;9.90;99.90;;;;;;5015797;28;20222;-64
2021/11/07 01:06:05;;;;;;;4.90;2.45;;;9.90;99.90;;;;;;5015891;28;20189;-64
2021/11/07 01:08:31;;;;;;;5.00;3.20;;;9.90;99.90;;;;;;5015581;28;20197;-65
2021/11/07 01:10:57;;;;;;;3.83;3.53;;;10.00;99.90;;;;;;4998192;28;20193;-64
2021/11/07 01:13:25;;;;;;;3.20;2.90;;;9.90;99.90;;;;;;5014697;28;20440;-64
2021/11/07 01:15:51;;;;;;;2.40;2.03;;;10.00;99.90;;;;;;5015822;28;20182;-65
2021/11/07 01:18:16;;;;;;;4.30;3.00;;;10.00;99.90;;;;;;5015439;28;20305;-64
2021/11/07 01:20:42;;;;;;;2.90;2.53;;;9.90;99.90;;;;;;5015626;28;20669;-64
2021/11/07 01:23:15;;;;;;;2.83;1.13;;;10.00;99.90;;;;;;5015859;28;20229;-64
2021/11/07 01:25:46;;;;;;;2.88;2.70;;;10.00;99.90;;;;;;4998314;28;20178;-64
2021/11/07 01:28:14;;;;;;;4.57;4.18;;;10.00;99.90;;;;;;5016017;28;20265;-64
2021/11/07 01:30:48;;;;;;;1.25;1.15;;;10.00;99.90;;;;;;5016503;28;20515;-65
2021/11/07 01:33:19;;;;;;;1.42;1.33;;;10.00;99.90;;;;;;5017284;28;20174;-65
2021/11/07 01:35:56;;;;;;;1.67;1.35;;;10.10;99.90;;;;;;5014218;28;20185;-65
2021/11/07 01:41:18;;;;;;;1.95;1.30;;;10.10;99.90;;;;;;5015632;28;20692;-65
2021/11/07 01:43:45;;;;;;;0.80;0.80;;;10.00;99.90;;;;;;5015530;28;20205;-66
2021/11/07 01:46:22;;;;;;;8.57;4.40;;;10.00;99.90;;;;;;5015216;28;20519;-66
2021/11/07 01:48:59;;;;;;;1.20;1.20;;;10.10;99.90;;;;;;5014996;28;20185;-66
2021/11/07 01:51:26;;;;;;;0.60;0.60;;;10.20;99.90;;;;;;5015233;28;20186;-65
2021/11/07 01:53:54;;;;;;;4.75;3.33;;;10.20;99.90;;;;;;5014825;28;20186;-66
2021/11/07 01:56:21;;;;;;;0.35;0.35;;;10.20;99.90;;;;;;5014718;28;20615;-65
2021/11/07 01:58:46;;;;;;;0.60;0.60;;;10.20;99.90;;;;;;5014350;28;20190;-65
2021/11/07 02:01:20;;;;;;;1.30;1.20;;;10.20;99.90;;;;;;5014501;28;20193;-66
2021/11/07 02:03:46;;;;;;;5.32;3.75;;;10.20;99.90;;;;;;5014440;28;20218;-65
2021/11/07 02:06:11;;;;;;;1.03;0.70;;;10.10;99.90;;;;;;5014478;28;20193;-65
2021/11/07 02:08:37;;;;;;;1.83;1.73;;;10.10;99.90;;;;;;5014632;28;20682;-65
2021/11/07 02:11:03;;;;;;;2.33;2.13;;;10.20;99.90;;;;;;5014528;28;20216;-65
2021/11/07 02:13:29;;;;;;;0.65;0.65;;;10.20;99.90;;;;;;5014342;28;20519;-65
2021/11/07 02:15:55;;;;;;;4.00;1.43;;;10.20;99.90;;;;;;5014304;28;20190;-65
2021/11/07 02:18:23;;;;;;;0.20;0.20;;;10.10;99.90;;;;;;5014019;28;20305;-65
2021/11/07 02:20:49;;;;;;;1.43;1.33;;;10.20;99.90;;;;;;5014210;28;20282;-65
2021/11/07 02:23:18;;;;;;;1.98;1.67;;;10.20;99.90;;;;;;5013422;28;20565;-65
2021/11/07 02:25:45;;;;;;;4.18;2.92;;;10.10;99.90;;;;;;5013979;28;20182;-65
2021/11/07 02:28:21;;;;;;;2.45;2.08;;;10.10;99.90;;;;;;5014134;28;20252;-64
2021/11/07 02:30:47;;;;;;;2.80;2.25;;;10.10;99.90;;;;;;5014366;28;20265;-63
2021/11/07 02:33:13;;;;;;;0.80;0.70;;;10.20;99.90;;;;;;5014378;28;20201;-64
2021/11/07 02:35:38;;;;;;;3.53;2.37;;;10.20;99.90;;;;;;5014245;28;20420;-64
2021/11/07 02:38:04;;;;;;;1.40;1.10;;;10.20;99.90;;;;;;5014107;28;20234;-64
2021/11/07 02:40:29;;;;;;;4.30;3.50;;;10.20;99.90;;;;;;4996996;28;20200;-63
2021/11/07 02:42:55;;;;;;;2.00;1.90;;;10.30;99.90;;;;;;5014114;28;20666;-64
2021/11/07 02:45:21;;;;;;;2.80;1.83;;;10.30;99.90;;;;;;5014348;28;20194;-64
2021/11/07 02:47:48;;;;;;;0.87;0.87;;;10.30;99.90;;;;;;5014093;28;20290;-64
2021/11/07 02:50:18;;;;;;;1.90;1.80;;;10.30;99.90;;;;;;5014086;28;20421;-64
2021/11/07 02:52:45;;;;;;;1.52;1.42;;;10.30;99.90;;;;;;5014038;28;20232;-64
2021/11/07 02:55:11;;;;;;;2.05;1.67;;;10.30;99.90;;;;;;5014114;28;20256;-64
2021/11/07 02:57:37;;;;;;;1.33;1.13;;;10.30;99.90;;;;;;5013550;28;20666;-65
2021/11/07 03:00:09;;;;;;;3.05;2.60;;;10.30;99.90;;;;;;5013636;28;20428;-64
2021/11/07 03:02:35;;;;;;;0.30;0.20;;;10.30;99.90;;;;;;5013557;28;20351;-64
2021/11/07 03:05:01;;;;;;;1.20;1.10;;;10.40;99.90;;;;;;5013694;28;20551;-64
2021/11/07 03:07:26;;;;;;;1.85;1.75;;;10.40;99.90;;;;;;5013699;28;20526;-64
2021/11/07 03:09:53;;;;;;;0.77;0.70;;;10.30;99.90;;;;;;5013349;28;20220;-63
2021/11/07 03:12:19;;;;;;;1.58;1.48;;;10.40;99.90;;;;;;4996593;28;20186;-63
2021/11/07 03:14:51;;;;;;;2.15;2.05;;;10.40;99.90;;;;;;5014211;28;20194;-63
2021/11/07 03:17:20;;;;;;;0.60;0.45;;;10.40;99.90;;;;;;4997232;28;20538;-63
2021/11/07 03:19:47;;;;;;;2.35;1.35;;;10.50;99.90;;;;;;5014192;28;20198;-66
2021/11/07 03:22:15;;;;;;;0.65;0.63;;;10.50;99.90;;;;;;5014428;28;20206;-64
2021/11/07 03:24:42;;;;;;;1.80;1.15;;;10.50;99.90;;;;;;5014431;28;20596;-63
2021/11/07 03:27:18;;;;;;;1.25;1.15;;;10.60;99.90;;;;;;5014336;28;20678;-63
2021/11/07 03:29:50;;;;;;;1.13;1.00;;;10.60;99.90;;;;;;5014120;28;20232;-64
2021/11/07 03:32:39;;;;;;;1.23;1.00;;;10.60;99.90;;;;;;5013870;28;20276;-63
2021/11/07 03:35:04;;;;;;;0.30;0.25;;;10.50;99.90;;;;;;5013508;28;20201;-65
2021/11/07 03:37:36;;;;;;;0.98;0.98;;;10.50;99.90;;;;;;5015425;28;20243;-65
2021/11/07 03:40:08;;;;;;;0.45;0.45;;;10.40;99.90;;;;;;5015110;28;20182;-65
2021/11/07 03:42:34;;;;;;;2.58;1.50;;;10.40;99.90;;;;;;5015262;28;20435;-65
2021/11/07 03:45:00;;;;;;;0.75;0.75;;;10.40;99.90;;;;;;5015343;28;20206;-66
2021/11/07 03:47:26;;;;;;;0.20;0.20;;;10.40;99.90;;;;;;5015339;28;20611;-65
2021/11/07 03:49:53;;;;;;;0.53;0.37;;;10.40;99.90;;;;;;5016884;28;20642;-65
2021/11/07 03:52:19;;;;;;;0.52;0.52;;;10.50;99.90;;;;;;4999668;28;20504;-66
2021/11/07 03:54:44;;;;;;;1.37;1.30;;;10.60;99.90;;;;;;5017002;28;20646;-65
2021/11/07 03:57:11;;;;;;;0.30;0.20;;;10.50;99.90;;;;;;5016897;28;20193;-65
2021/11/07 03:59:40;;;;;;;9.38;1.00;;;10.50;99.90;;;;;;5016684;28;20213;-65
2021/11/07 04:02:06;;;;;;;2.50;0.60;;;10.40;99.90;;;;;;5016716;28;20206;-64
2021/11/07 04:04:31;;;;;;;1.07;0.73;;;10.40;99.90;;;;;;5016666;28;20204;-64
2021/11/07 04:06:57;;;;;;;0.40;0.37;;;10.40;99.90;;;;;;5016650;28;20641;-64
2021/11/07 04:09:22;;;;;;;0.40;0.40;;;10.40;99.90;;;;;;4999062;28;20189;-64
2021/11/07 04:11:48;;;;;;;0.30;0.30;;;10.40;99.90;;;;;;5017027;28;20221;-65
2021/11/07 04:14:15;;;;;;;0.30;0.20;;;10.40;99.90;;;;;;5016896;28;20497;-65
2021/11/07 04:16:41;;;;;;;0.30;0.30;;;10.40;99.90;;;;;;5018232;28;20232;-65
2021/11/07 04:19:10;;;;;;;2.90;0.65;;;10.30;99.90;;;;;;5015926;28;20201;-65
2021/11/07 04:21:37;;;;;;;0.38;0.38;;;10.30;99.90;;;;;;4999145;28;20197;-65
2021/11/07 04:24:03;;;;;;;0.30;0.28;;;10.20;99.90;;;;;;5016642;28;20184;-65
2021/11/07 04:26:29;;;;;;;0.87;0.87;;;10.20;99.90;;;;;;5016468;28;20170;-65
2021/11/07 04:28:54;;;;;;;0.20;0.10;;;10.10;99.90;;;;;;5016090;28;20483;-65
2021/11/07 04:31:20;;;;;;;0.30;0.20;;;10.20;99.90;;;;;;5016061;28;20431;-66
2021/11/07 04:33:46;;;;;;;0.30;0.30;;;10.20;99.90;;;;;;5016236;28;20243;-66
2021/11/07 04:36:11;;;;;;;0.20;0.20;;;10.10;99.90;;;;;;5016303;28;20228;-65
2021/11/07 04:38:38;;;;;;;0.30;0.30;;;10.20;99.90;;;;;;5015853;28;20286;-65
2021/11/07 04:41:05;;;;;;;1.63;0.65;;;10.10;99.90;;;;;;5016050;28;20186;-65
2021/11/07 04:43:31;;;;;;;0.40;0.40;;;10.00;99.90;;;;;;5015876;28;20209;-65
2021/11/07 04:45:57;;;;;;;0.20;0.10;;;10.00;99.90;;;;;;5015313;28;20179;-65
2021/11/07 04:48:23;;;;;;;0.50;0.40;;;10.00;99.90;;;;;;5015695;28;20185;-65
2021/11/07 04:50:49;;;;;;;0.43;0.43;;;10.10;99.90;;;;;;5015856;28;20421;-65
2021/11/07 04:53:20;;;;;;;0.43;0.43;;;10.00;99.90;;;;;;4998503;28;20197;-65
2021/11/07 04:55:46;;;;;;;0.20;0.20;;;10.00;99.90;;;;;;5016042;28;20898;-65
2021/11/07 04:58:12;;;;;;;0.40;0.40;;;9.90;99.90;;;;;;5015551;28;20185;-65
2021/11/07 05:00:39;;;;;;;0.30;0.20;;;10.00;99.90;;;;;;5014871;28;20178;-65
2021/11/07 05:03:06;;;;;;;0.40;0.30;;;10.10;99.90;;;;;;5015695;28;20468;-65
2021/11/07 05:05:32;;;;;;;0.55;0.55;;;10.10;99.90;;;;;;5015673;28;20251;-65
2021/11/07 05:07:58;;;;;;;0.90;0.88;;;10.20;99.90;;;;;;5015518;28;20169;-65
2021/11/07 05:10:26;;;;;;;10.90;1.33;;;10.30;99.90;;;;;;5015707;28;20184;-65
2021/11/07 05:12:52;;;;;;;0.20;0.20;;;10.30;99.90;;;;;;5015586;28;20182;-65
2021/11/07 05:15:18;;;;;;;0.73;0.73;;;10.30;99.90;;;;;;5015355;28;20599;-65
2021/11/07 05:17:44;;;;;;;0.30;0.20;;;10.30;99.90;;;;;;4998075;28;20272;-66
2021/11/07 05:20:11;;;;;;;0.93;0.93;;;10.40;99.90;;;;;;5015383;28;20461;-65
2021/11/07 05:22:37;;;;;;;0.20;0.20;;;10.40;99.90;;;;;;5015307;28;20946;-65
2021/11/07 05:25:07;;;;;;;0.20;0.20;;;10.50;99.90;;;;;;5015528;28;20178;-66
2021/11/07 05:27:34;;;;;;;0.40;0.30;;;10.50;99.90;;;;;;4982436;28;20615;-67
2021/11/07 05:30:07;;;;;;;1.13;0.63;;;10.50;99.90;;;;;;4997682;28;20182;-67
2021/11/07 05:32:33;;;;;;;0.70;0.70;;;10.60;99.90;;;;;;5014282;28;20269;-66
2021/11/07 05:34:58;;;;;;;0.60;0.60;;;10.50;99.90;;;;;;5015167;28;20739;-66
2021/11/07 05:37:24;;;;;;;0.47;0.47;;;10.50;99.90;;;;;;5015052;28;20185;-66
2021/11/07 05:39:51;;;;;;;0.35;0.35;;;10.50;99.90;;;;;;5014752;28;20178;-66
2021/11/07 05:42:17;;;;;;;0.30;0.30;;;10.60;99.90;;;;;;5014846;28;20701;-66
2021/11/07 05:44:43;;;;;;;0.30;0.20;;;10.60;99.90;;;;;;4997466;28;20175;-66
2021/11/07 05:47:08;;;;;;;0.30;0.20;;;10.60;99.90;;;;;;4997477;28;20190;-66
2021/11/07 05:49:34;;;;;;;0.30;0.20;;;10.60;99.90;;;;;;5014499;28;20188;-66
2021/11/07 05:51:59;;;;;;;0.30;0.20;;;10.60;99.90;;;;;;5014768;28;20277;-66
2021/11/07 05:54:25;;;;;;;0.70;0.40;;;10.60;99.90;;;;;;5014674;28;20189;-67
2021/11/07 05:56:51;;;;;;;1.23;0.60;;;10.40;99.90;;;;;;5014277;28;20220;-66
2021/11/07 05:59:16;;;;;;;0.83;0.73;;;10.30;99.90;;;;;;5013764;28;20205;-66
2021/11/07 06:01:42;;;;;;;1.27;1.20;;;10.20;99.90;;;;;;5014577;28;20265;-66
2021/11/07 06:04:08;;;;;;;0.30;0.20;;;10.20;99.90;;;;;;5014937;28;20689;-66
2021/11/07 06:06:34;;;;;;;0.30;0.20;;;10.20;99.90;;;;;;5014625;28;20249;-66
2021/11/07 06:09:00;;;;;;;0.77;0.60;;;10.20;99.90;;;;;;4996836;28;20626;-66
2021/11/07 06:11:26;;;;;;;6.18;1.00;;;10.20;99.90;;;;;;5014418;28;20197;-66
2021/11/07 06:13:51;;;;;;;1.57;0.80;;;10.20;99.90;;;;;;5014381;28;20190;-66
2021/11/07 06:16:17;;;;;;;0.40;0.40;;;10.20;99.90;;;;;;5014451;28;20190;-66
2021/11/07 06:18:46;;;;;;;0.50;0.50;;;10.30;99.90;;;;;;5014203;28;20636;-66
2021/11/07 06:21:12;;;;;;;0.50;0.40;;;10.20;99.90;;;;;;5014438;28;20235;-66
2021/11/07 06:23:39;;;;;;;1.38;0.35;;;10.20;99.90;;;;;;5014135;28;20210;-66
2021/11/07 06:26:05;;;;;;;3.30;2.83;;;10.20;99.90;;;;;;5014310;28;20182;-66
2021/11/07 06:28:30;;;;;;;0.20;0.20;;;10.20;99.90;;;;;;5013978;28;20182;-66
2021/11/07 06:31:02;;;;;;;0.57;0.57;;;10.30;99.90;;;;;;4997262;28;20195;-66
2021/11/07 06:33:28;;;;;;;0.40;0.30;;;10.20;99.90;;;;;;5014318;28;20186;-66
2021/11/07 06:35:53;;;;;;;4.73;1.13;;;10.10;99.90;;;;;;5014055;28;20511;-66
2021/11/07 06:38:19;;;;;;;2.30;0.50;;;10.10;99.90;;;;;;5013820;28;20249;-66
2021/11/07 06:40:44;;;;;;;0.20;0.20;;;10.00;99.90;;;;;;5014074;28;20199;-67
2021/11/07 06:43:10;;;;;;;0.20;0.20;;;10.10;99.90;;;;;;5014269;28;20234;-66
2021/11/07 06:45:36;;;;;;;0.60;0.60;;;10.10;99.90;;;;;;5013969;28;20677;-66
2021/11/07 06:48:02;;;;;;;0.30;0.28;;;10.10;99.90;;;;;;4996835;28;20189;-65
2021/11/07 06:50:28;;;;;;;3.53;1.88;;;10.10;99.90;;;;;;4996806;28;20182;-65
2021/11/07 06:52:54;;;;;;;0.30;0.30;;;10.00;99.90;;;;;;4996718;28;20638;-64
2021/11/07 06:55:20;;;;;;;0.33;0.30;;;10.10;99.90;;;;;;5013913;28;20429;-65
2021/11/07 06:57:47;;;;;;;0.20;0.20;;;10.10;99.90;;;;;;5013692;28;20174;-64
2021/11/07 07:00:17;;;;;;;5.55;0.40;;;10.10;99.90;;;;;;5012878;28;20186;-65
2021/11/07 07:02:43;;;;;;;0.20;0.15;;;10.10;99.90;;;;;;5013077;28;20240;-64
2021/11/07 07:05:10;;;;;;;0.20;0.20;;;10.00;99.90;;;;;;5014374;28;20261;-64
2021/11/07 07:07:38;;;;;;;2.60;2.50;;;10.00;99.90;;;;;;5013963;28;20801;-64
2021/11/07 07:10:08;;;;;;;1.48;0.40;;;10.10;99.90;;;;;;5016309;28;20174;-65
2021/11/07 07:12:59;;;;;;;2.05;0.63;;;10.10;99.90;;;;;;5017878;28;20682;-66
2021/11/07 07:15:36;;;;;;;0.52;0.43;;;10.10;99.90;;;;;;5017095;28;20213;-65
2021/11/07 07:20:43;;;;;;;0.20;0.20;;;9.90;99.90;;;;;;5017769;28;20277;-65
2021/11/07 07:26:09;;;;;;;0.95;0.73;;;9.90;99.90;;;;;;5017720;28;20188;-65
2021/11/07 07:35:57;;;;;;;0.55;0.30;;;10.00;99.90;;;;;;5017452;28;20208;-65
2021/11/07 07:38:24;;;;;;;2.83;2.63;;;10.10;99.90;;;;;;4999736;28;20269;-64
2021/11/07 07:40:50;;;;;;;0.50;0.40;;;10.20;99.90;;;;;;5017201;28;20221;-64
2021/11/07 07:43:17;;;;;;;0.20;0.20;;;10.40;99.90;;;;;;5017222;28;20629;-64
2021/11/07 07:45:43;;;;;;;0.30;0.20;;;10.60;99.90;;;;;;5017207;28;20186;-64
2021/11/07 07:48:09;;;;;;;4.80;1.37;;;10.60;99.90;;;;;;5016725;28;20525;-64
2021/11/07 07:50:40;;;;;;;0.63;0.60;;;10.50;99.90;;;;;;5017176;28;20178;-64
2021/11/07 07:53:07;;;;;;;2.15;0.73;;;10.30;99.90;;;;;;5017033;28;20588;-65
2021/11/07 07:55:35;;;;;;;0.32;0.30;;;10.20;99.90;;;;;;5016814;28;20594;-65
2021/11/07 07:58:02;;;;;;;1.20;0.93;;;10.20;99.90;;;;;;5016710;28;20626;-65
2021/11/07 08:00:28;;;;;;;0.30;0.20;;;10.10;97.50;;;;;;5016792;28;20189;-65
2021/11/07 08:02:54;;;;;;;0.30;0.20;;;10.10;25.80;;;;;;5016799;28;20539;-65
2021/11/07 08:05:19;;;;;;;0.20;0.20;;;10.10;40.00;;;;;;5016912;28;20228;-64
2021/11/07 08:07:46;;;;;;;0.77;0.30;;;10.10;51.40;;;;;;4999442;28;20185;-64
2021/11/07 08:10:13;;;;;;;1.70;0.38;;;10.10;98.50;;;;;;5016485;28;20182;-64
2021/11/07 08:12:39;;;;;;;1.05;0.65;;;10.00;99.90;;;;;;5016714;28;20193;-64
2021/11/07 08:15:09;;;;;;;1.15;0.90;;;10.10;99.90;;;;;;5016675;28;20651;-65
2021/11/07 08:17:35;;;;;;;0.57;0.57;;;10.10;99.90;;;;;;5016814;28;20182;-65
2021/11/07 08:20:04;;;;;;;0.30;0.20;;;10.20;99.90;;;;;;5015050;28;20276;-65
2021/11/07 08:22:31;;;;;;;1.48;0.50;;;10.30;99.90;;;;;;5015658;28;20592;-66
2021/11/07 08:24:56;;;;;;;0.20;0.10;;;10.40;99.90;;;;;;5016577;28;20186;-66
2021/11/07 08:27:23;;;;;;;1.70;1.30;;;10.40;99.90;;;;;;5016379;28;20173;-64
2021/11/07 08:29:51;;;;;;;0.98;0.95;;;10.40;99.90;;;;;;5016060;28;20228;-65
2021/11/07 08:32:17;;;;;;;1.85;1.55;;;10.40;99.90;;;;;;4999157;28;20197;-66
2021/11/07 08:34:43;;;;;;;0.30;0.20;;;10.40;95.70;;;;;;5016286;28;20174;-65
2021/11/07 08:37:12;;;;;;;0.20;0.10;;;10.40;34.60;;;;;;5016114;28;20193;-66
2021/11/07 08:39:42;;;;;;;0.20;0.20;;;10.60;22.30;;;;;;4998676;28;20182;-64
2021/11/07 08:42:28;;;;;;;0.30;0.20;;;10.70;23.30;;;;;;4998835;28;20241;-65
2021/11/07 09:09:20;;;;;;;1.45;0.80;;;10.80;99.90;;;;;;5016620;28;20513;-65
2021/11/07 09:11:57;;;;;;;2.00;0.65;;;10.80;99.90;;;;;;5014575;28;20178;-66
2021/11/07 09:14:34;;;;;;;0.77;0.75;;;10.80;99.50;;;;;;5016031;28;20497;-64
2021/11/07 09:17:02;;;;;;;3.60;0.73;;;11.00;91.60;;;;;;5016094;28;20174;-64
2021/11/07 09:19:31;;;;;;;2.45;1.13;;;11.20;23.90;;;;;;5015716;28;20205;-65
2021/11/07 09:22:08;;;;;;;0.93;0.43;;;11.00;1.00;;;;;;5015321;28;20189;-64
2021/11/07 09:27:10;;;;;;;3.15;0.90;;;11.20;1.00;;;;;;5015421;28;20561;-64
2021/11/07 09:35:09;;;;;;;2.67;0.40;;;11.40;1.00;;;;;;5015121;28;20268;-64
2021/11/07 09:40:11;;;;;;;0.50;0.30;;;11.80;1.00;;;;;;5014555;28;20174;-65
2021/11/07 09:45:22;;;;;;;0.75;0.45;;;11.70;99.90;;;;;;5014726;28;20175;-65
2021/11/07 09:47:54;;;;;;;0.30;0.20;;;11.60;99.90;;;;;;4997599;28;20754;-64
2021/11/07 09:50:20;;;;;;;0.45;0.25;;;11.70;99.90;;;;;;5014989;28;20281;-64
2021/11/07 09:52:48;;;;;;;2.60;1.23;;;11.60;99.90;;;;;;5014733;28;20273;-65
2021/11/07 09:55:16;;;;;;;0.73;0.73;;;11.50;99.90;;;;;;5014701;28;20429;-65
2021/11/07 09:57:42;;;;;;;1.20;0.20;;;11.50;99.90;;;;;;4997322;28;20243;-66
2021/11/07 10:00:15;;;;;;;6.95;1.33;;;11.40;1.00;;;;;;5014548;28;20190;-64
2021/11/07 10:02:41;;;;;;;0.30;0.20;;;11.30;1.00;;;;;;5000515;28;20203;-69
2021/11/07 10:05:09;;;;;;;3.50;1.07;;;11.10;99.90;;;;;;4991462;28;20507;-68
2021/11/07 10:07:38;;;;;;;3.42;1.20;;;11.20;99.90;;;;;;4995005;28;20179;-66
2021/11/07 10:10:14;;;;;;;0.63;0.63;;;10.90;99.90;;;;;;4977850;28;20187;-64
2021/11/07 10:12:47;;;;;;;0.30;0.20;;;10.60;99.90;;;;;;4994287;28;20559;-67
2021/11/07 10:15:45;;;;;;;0.40;0.20;;;10.40;99.90;;;;;;4993611;28;20187;-67
2021/11/07 10:18:24;;;;;;;2.72;2.50;;;10.40;99.90;;;;;;4993491;28;20209;-65
2021/11/07 10:20:54;;;;;;;0.77;0.77;;;10.30;99.90;;;;;;4977436;28;20289;-68
2021/11/07 10:23:33;;;;;;;0.30;0.20;;;10.30;99.90;;;;;;4994585;28;20517;-67
2021/11/07 10:26:10;;;;;;;0.85;0.85;;;10.30;99.90;;;;;;4994727;28;20490;-63
2021/11/07 10:31:17;;;;;;;1.80;0.75;;;10.60;1.00;;;;;;4994365;28;20179;-64
2021/11/07 10:52:47;;;;;;;0.30;0.20;;;11.00;1.00;;;;;;4994391;28;20186;-68
2021/11/07 10:55:25;;;;;;;1.27;0.77;;;11.20;1.00;;;;;;4993406;28;20174;-68
2021/11/07 10:58:02;;;;;;;0.30;0.30;;;11.40;1.00;;;;;;4993869;28;20194;-67
2021/11/07 11:00:31;;;;;;;0.82;0.20;;;11.70;1.00;;;;;;4994007;28;20589;-67
2021/11/07 11:03:04;;;;;;;3.45;1.75;;;11.70;99.90;;;;;;4993748;28;20202;-68
2021/11/07 11:05:52;;;;;;;0.70;0.50;;;11.70;99.90;;;;;;4994186;28;20240;-68
2021/11/07 11:08:31;;;;;;;2.15;0.85;;;11.90;99.90;;;;;;4976602;28;20580;-67
2021/11/07 11:11:23;;;;;;;0.80;0.68;;;12.10;1.00;;;;;;4993858;28;20178;-65
2021/11/07 11:17:10;;;;;;;1.67;0.35;;;12.10;99.90;;;;;;4974666;28;20190;-66
2021/11/07 11:22:28;;;;;;;0.30;0.20;;;11.90;1.00;;;;;;4974671;28;20207;-66
2021/11/07 11:25:04;;;;;;;0.40;0.30;;;11.80;45.70;;;;;;4974559;28;20585;-66
2021/11/07 11:35:49;;;;;;;0.40;0.38;;;11.90;1.00;;;;;;4993553;28;20214;-66
2021/11/07 11:38:29;;;;;;;1.95;0.68;;;12.10;1.00;;;;;;4977885;28;20179;-67
2021/11/07 11:41:18;;;;;;;0.75;0.75;;;12.10;1.00;;;;;;4993545;28;20179;-67
2021/11/07 11:43:47;;;;;;;0.30;0.20;;;11.90;1.00;;;;;;4993124;28;20647;-67
2021/11/07 11:46:47;;;;;;;0.50;0.30;;;12.20;99.90;;;;;;4976082;28;20210;-66
2021/11/07 11:52:14;;;;;;;1.85;0.50;;;12.40;1.00;;;;;;4993643;28;20186;-68
2021/11/07 11:54:57;;;;;;;0.45;0.30;;;12.30;99.90;;;;;;4994128;28;20183;-66
2021/11/07 12:00:31;;;;;;;4.13;1.10;;;12.10;1.00;;;;;;4997044;28;20249;-68
2021/11/07 12:08:31;;;;;;;5.18;0.80;;;11.40;1.00;;;;;;4997246;28;20178;-65
2021/11/07 12:11:36;;;;;;;1.40;1.27;;;11.20;99.90;;;;;;4996245;28;20187;-64
2021/11/07 12:14:29;;;;;;;1.75;0.85;;;11.20;99.90;;;;;;4996944;28;20202;-66
2021/11/07 12:16:59;;;;;;;2.15;0.80;;;11.30;1.00;;;;;;4996836;28;20179;-67
2021/11/07 12:19:39;;;;;;;3.35;0.82;;;11.40;1.00;;;;;;4996749;28;20230;-66
2021/11/07 12:22:23;;;;;;;1.35;0.40;;;11.50;1.00;;;;;;4979469;28;20695;-65
2021/11/07 12:24:49;;;;;;;1.02;0.60;;;11.50;1.00;;;;;;4994666;28;20194;-67
2021/11/07 12:27:26;;;;;;;0.30;0.10;;;11.40;1.00;;;;;;5012683;28;20178;-65
2021/11/07 12:30:02;;;;;;;0.85;0.85;;;11.40;35.50;;;;;;4976498;28;20167;-64
2021/11/07 12:32:37;;;;;;;1.23;1.13;;;11.30;93.40;;;;;;4990810;28;20182;-65
2021/11/07 12:35:13;;;;;;;0.30;0.30;;;11.50;60.10;;;;;;5015953;28;20185;-67
2021/11/07 12:41:00;;;;;;;0.30;0.20;;;11.40;99.90;;;;;;5012855;28;20206;-66
2021/11/07 12:43:38;;;;;;;1.15;0.50;;;11.60;77.40;;;;;;4996545;28;20714;-68
2021/11/07 12:46:21;;;;;;;4.22;0.65;;;11.70;1.00;;;;;;4996750;28;20611;-68
2021/11/07 12:48:56;;;;;;;7.03;1.92;;;11.80;1.00;;;;;;4980241;28;20211;-68
2021/11/07 12:51:40;;;;;;;8.38;0.60;;;11.80;1.00;;;;;;4995084;28;20182;-69
2021/11/07 12:54:20;;;;;;;3.15;1.00;;;11.70;1.00;;;;;;4997502;28;20261;-68
2021/11/07 12:56:56;;;;;;;0.93;0.93;;;11.60;1.00;;;;;;4995963;28;20202;-67
2021/11/07 12:59:37;;;;;;;1.50;0.63;;;11.80;1.00;;;;;;4997540;28;20277;-68
2021/11/07 13:02:18;;;;;;;1.63;0.55;;;11.60;1.00;;;;;;4997015;28;20193;-67
2021/11/07 13:04:51;;;;;;;5.70;2.83;;;11.50;99.90;;;;;;4997339;28;20269;-69
2021/11/07 13:07:49;;;;;;;2.53;0.95;;;11.30;1.00;;;;;;4978716;28;20521;-67
2021/11/07 13:10:28;;;;;;;0.50;0.20;;;10.90;1.00;;;;;;4995606;28;20179;-66
2021/11/07 13:13:03;;;;;;;1.60;0.35;;;10.60;1.00;;;;;;4995861;28;20252;-65
2021/11/07 13:18:30;;;;;;;0.50;0.20;;;10.40;99.90;;;;;;4995260;28;20276;-65
2021/11/07 13:26:20;;;;;;;0.40;0.40;;;9.90;99.90;;;;;;4995889;28;20601;-68
2021/11/07 13:29:07;;;;;;;0.95;0.95;;;9.90;99.90;;;;;;4995183;28;20253;-67
2021/11/07 13:34:36;;;;;;;5.70;2.55;;;10.10;99.90;;;;;;5004889;28;20178;-67
2021/11/07 13:37:05;;;;;;;0.68;0.52;;;10.30;99.90;;;;;;5006534;28;20174;-65
2021/11/07 13:39:33;;;;;;;3.80;1.27;;;10.40;99.90;;;;;;4997545;28;20179;-66
2021/11/07 13:42:16;;;;;;;0.50;0.38;;;10.50;99.90;;;;;;5002620;28;20220;-65
2021/11/07 13:45:01;;;;;;;2.80;1.20;;;10.60;99.90;;;;;;4974188;28;20210;-65
2021/11/07 13:47:32;;;;;;;6.65;1.48;;;10.80;99.90;;;;;;4956702;28;20584;-65
2021/11/07 13:49:59;;;;;;;1.70;0.50;;;10.90;99.90;;;;;;4974501;28;20250;-66
2021/11/07 13:52:30;;;;;;;0.40;0.30;;;10.80;99.90;;;;;;4958131;28;20183;-66
2021/11/07 13:54:55;;;;;;;1.90;0.60;;;10.80;99.90;;;;;;4975475;28;20608;-65
2021/11/07 13:57:27;;;;;;;0.30;0.20;;;10.80;99.90;;;;;;4975326;28;20242;-66
2021/11/07 13:59:53;;;;;;;0.30;0.20;;;10.80;99.90;;;;;;4958244;28;20515;-67
2021/11/07 14:02:23;;;;;;;0.30;0.20;;;10.90;99.90;;;;;;4975510;28;20206;-64
2021/11/07 14:04:55;;;;;;;7.78;4.32;;;11.10;99.90;;;;;;4977724;28;20521;-65
2021/11/07 14:07:31;;;;;;;0.30;0.20;;;11.00;95.50;;;;;;4977481;28;20187;-65
2021/11/07 14:10:12;;;;;;;0.30;0.25;;;11.00;99.90;;;;;;4977856;28;20225;-65
2021/11/07 14:12:48;;;;;;;0.30;0.20;;;11.00;99.90;;;;;;4994980;28;20686;-67
2021/11/07 14:15:22;;;;;;;3.40;0.98;;;10.90;99.90;;;;;;4994972;28;20186;-65
2021/11/07 14:17:54;;;;;;;0.38;0.38;;;10.60;99.90;;;;;;4995021;28;20209;-68
2021/11/07 14:20:36;;;;;;;4.25;2.45;;;10.20;99.90;;;;;;4994588;28;20178;-69
2021/11/07 14:23:14;;;;;;;4.70;4.00;;;9.80;99.90;;;;;;4995235;28;20209;-67
2021/11/07 14:25:50;;;;;;;1.30;0.95;;;9.80;99.90;;;;;;4995100;28;20461;-68
2021/11/07 14:28:25;;;;;;;0.63;0.40;;;9.70;99.90;;;;;;4994343;28;20179;-67
2021/11/07 14:30:51;;;;;;;7.10;0.85;;;9.80;99.90;;;;;;4994509;28;20179;-67
2021/11/07 14:33:29;;;;;;;1.05;0.95;;;9.90;99.90;;;;;;4994827;28;20187;-65
2021/11/07 14:36:02;;;;;;;2.35;0.73;;;9.90;99.90;;;;;;4994586;28;20235;-65
2021/11/07 14:38:37;;;;;;;0.68;0.68;;;10.00;99.90;;;;;;4994516;28;20193;-67
2021/11/07 14:41:13;;;;;;;4.28;0.50;;;9.90;99.90;;;;;;4994569;28;20182;-68
2021/11/07 14:43:51;;;;;;;0.30;0.30;;;9.90;99.90;;;;;;4994359;28;20304;-65
2021/11/07 14:46:44;;;;;;;0.20;0.20;;;9.90;99.90;;;;;;4994431;28;20198;-65
2021/11/07 14:49:36;;;;;;;0.55;0.35;;;10.00;99.90;;;;;;4993935;28;20233;-67
2021/11/07 14:55:22;;;;;;;0.30;0.20;;;9.90;99.90;;;;;;4993874;28;20225;-63
2021/11/07 14:58:19;;;;;;;0.88;0.20;;;9.80;99.90;;;;;;4993083;28;20179;-66
2021/11/07 15:00:53;;;;;;;0.43;0.43;;;9.90;99.90;;;;;;4993288;28;20313;-63
2021/11/07 15:03:22;;;;;;;0.30;0.30;;;9.80;99.90;;;;;;4992854;28;20205;-63
2021/11/07 15:06:33;;;;;;;0.63;0.43;;;9.70;99.90;;;;;;4975400;28;20216;-64
2021/11/07 15:09:09;;;;;;;0.30;0.30;;;9.70;99.90;;;;;;4975600;28;20552;-63
2021/11/07 15:15:15;;;;;;;0.30;0.30;;;9.60;99.90;;;;;;4992669;28;20184;-64
2021/11/07 15:17:39;;;;;;;0.30;0.20;;;9.60;99.90;;;;;;4987133;28;20194;-65
2021/11/07 15:20:32;;;;;;;3.50;0.73;;;9.60;99.90;;;;;;4993908;28;20194;-65
2021/11/07 15:22:59;;;;;;;1.40;0.45;;;9.50;99.90;;;;;;4994164;28;20288;-63
2021/11/07 15:25:34;;;;;;;0.80;0.80;;;9.60;99.90;;;;;;4976878;28;20179;-63
2021/11/07 15:28:14;;;;;;;0.50;0.40;;;9.60;99.90;;;;;;4995186;28;20174;-64
2021/11/07 15:30:41;;;;;;;0.20;0.20;;;9.50;99.90;;;;;;4997116;28;20185;-65